sensor_id;sensor_type;location;lat;lon;timestamp;P1;durP1;ratioP1;P2;durP2;ratioP2
68256;SDS011;55069;51.568;4.656;2022-08-19T00:01:38;13.10;;;10.82;;
68256;SDS011;55069;51.568;4.656;2022-08-19T00:04:07;14.13;;;10.45;;
68256;SDS011;55069;51.568;4.656;2022-08-19T00:06:35;11.48;;;9.02;;
68256;SDS011;55069;51.568;4.656;2022-08-19T00:09:02;13.00;;;9.10;;
68256;SDS011;55069;51.568;4.656;2022-08-19T00:11:31;12.70;;;9.10;;
68256;SDS011;55069;51.568;4.656;2022-08-19T00:13:56;11.88;;;8.82;;
68256;SDS011;55069;51.568;4.656;2022-08-19T00:16:23;12.90;;;10.00;;
68256;SDS011;55069;51.568;4.656;2022-08-19T00:18:50;14.43;;;9.23;;
68256;SDS011;55069;51.568;4.656;2022-08-19T00:21:15;14.27;;;9.85;;
68256;SDS011;55069;51.568;4.656;2022-08-19T00:23:41;14.27;;;9.47;;
68256;SDS011;55069;51.568;4.656;2022-08-19T00:26:08;12.77;;;8.98;;
68256;SDS011;55069;51.568;4.656;2022-08-19T00:28:35;14.63;;;10.18;;
68256;SDS011;55069;51.568;4.656;2022-08-19T00:31:02;10.90;;;9.15;;
68256;SDS011;55069;51.568;4.656;2022-08-19T00:33:30;13.27;;;9.70;;
68256;SDS011;55069;51.568;4.656;2022-08-19T00:35:58;10.95;;;9.00;;
68256;SDS011;55069;51.568;4.656;2022-08-19T00:38:26;13.82;;;10.77;;
68256;SDS011;55069;51.568;4.656;2022-08-19T00:40:52;13.45;;;10.25;;
68256;SDS011;55069;51.568;4.656;2022-08-19T00:43:19;17.67;;;10.43;;
68256;SDS011;55069;51.568;4.656;2022-08-19T00:45:46;14.80;;;11.38;;
68256;SDS011;55069;51.568;4.656;2022-08-19T00:48:13;18.10;;;11.23;;
68256;SDS011;55069;51.568;4.656;2022-08-19T00:50:40;14.93;;;11.02;;
68256;SDS011;55069;51.568;4.656;2022-08-19T00:53:08;15.90;;;12.13;;
68256;SDS011;55069;51.568;4.656;2022-08-19T00:55:35;11.63;;;10.20;;
68256;SDS011;55069;51.568;4.656;2022-08-19T00:58:06;16.25;;;12.00;;
68256;SDS011;55069;51.568;4.656;2022-08-19T01:00:34;16.33;;;10.57;;
68256;SDS011;55069;51.568;4.656;2022-08-19T01:03:06;11.35;;;9.40;;
68256;SDS011;55069;51.568;4.656;2022-08-19T01:05:34;16.50;;;10.82;;
68256;SDS011;55069;51.568;4.656;2022-08-19T01:08:02;15.90;;;11.03;;
68256;SDS011;55069;51.568;4.656;2022-08-19T01:10:31;16.25;;;11.10;;
68256;SDS011;55069;51.568;4.656;2022-08-19T01:13:05;14.68;;;11.63;;
68256;SDS011;55069;51.568;4.656;2022-08-19T01:15:32;16.52;;;11.45;;
68256;SDS011;55069;51.568;4.656;2022-08-19T01:18:01;14.30;;;10.40;;
68256;SDS011;55069;51.568;4.656;2022-08-19T01:20:31;13.82;;;9.93;;
68256;SDS011;55069;51.568;4.656;2022-08-19T01:22:57;15.68;;;10.38;;
68256;SDS011;55069;51.568;4.656;2022-08-19T01:25:28;12.93;;;8.98;;
68256;SDS011;55069;51.568;4.656;2022-08-19T01:28:04;13.73;;;11.00;;
68256;SDS011;55069;51.568;4.656;2022-08-19T01:30:31;13.87;;;10.60;;
68256;SDS011;55069;51.568;4.656;2022-08-19T01:32:59;14.23;;;10.10;;
68256;SDS011;55069;51.568;4.656;2022-08-19T01:35:26;14.02;;;10.15;;
68256;SDS011;55069;51.568;4.656;2022-08-19T01:37:55;16.88;;;11.48;;
68256;SDS011;55069;51.568;4.656;2022-08-19T01:40:27;14.07;;;10.02;;
68256;SDS011;55069;51.568;4.656;2022-08-19T01:42:55;15.90;;;11.33;;
68256;SDS011;55069;51.568;4.656;2022-08-19T01:45:22;15.18;;;11.07;;
68256;SDS011;55069;51.568;4.656;2022-08-19T01:47:49;14.77;;;11.27;;
68256;SDS011;55069;51.568;4.656;2022-08-19T01:50:15;15.77;;;11.50;;
68256;SDS011;55069;51.568;4.656;2022-08-19T01:52:41;14.85;;;11.68;;
68256;SDS011;55069;51.568;4.656;2022-08-19T01:55:10;15.13;;;11.90;;
68256;SDS011;55069;51.568;4.656;2022-08-19T01:57:40;16.23;;;11.82;;
68256;SDS011;55069;51.568;4.656;2022-08-19T02:00:09;21.70;;;12.23;;
68256;SDS011;55069;51.568;4.656;2022-08-19T02:02:37;17.65;;;12.27;;
68256;SDS011;55069;51.568;4.656;2022-08-19T02:05:03;17.30;;;13.02;;
68256;SDS011;55069;51.568;4.656;2022-08-19T02:07:28;15.50;;;11.95;;
68256;SDS011;55069;51.568;4.656;2022-08-19T02:09:54;14.80;;;11.10;;
68256;SDS011;55069;51.568;4.656;2022-08-19T02:12:20;21.38;;;16.30;;
68256;SDS011;55069;51.568;4.656;2022-08-19T02:14:46;26.10;;;17.42;;
68256;SDS011;55069;51.568;4.656;2022-08-19T02:17:12;23.60;;;16.45;;
68256;SDS011;55069;51.568;4.656;2022-08-19T02:19:38;20.70;;;15.40;;
68256;SDS011;55069;51.568;4.656;2022-08-19T02:22:04;25.02;;;17.55;;
68256;SDS011;55069;51.568;4.656;2022-08-19T02:24:30;27.43;;;18.27;;
68256;SDS011;55069;51.568;4.656;2022-08-19T02:26:55;36.50;;;22.70;;
68256;SDS011;55069;51.568;4.656;2022-08-19T02:29:21;37.53;;;20.93;;
68256;SDS011;55069;51.568;4.656;2022-08-19T02:31:46;31.27;;;18.37;;
68256;SDS011;55069;51.568;4.656;2022-08-19T02:34:12;46.63;;;26.33;;
68256;SDS011;55069;51.568;4.656;2022-08-19T02:36:38;44.87;;;25.00;;
68256;SDS011;55069;51.568;4.656;2022-08-19T02:39:03;47.17;;;26.58;;
68256;SDS011;55069;51.568;4.656;2022-08-19T02:41:29;38.00;;;22.43;;
68256;SDS011;55069;51.568;4.656;2022-08-19T02:43:57;47.25;;;25.98;;
68256;SDS011;55069;51.568;4.656;2022-08-19T02:46:27;52.65;;;28.95;;
68256;SDS011;55069;51.568;4.656;2022-08-19T02:48:56;55.70;;;29.33;;
68256;SDS011;55069;51.568;4.656;2022-08-19T02:51:28;46.80;;;26.13;;
68256;SDS011;55069;51.568;4.656;2022-08-19T02:53:59;44.42;;;25.20;;
68256;SDS011;55069;51.568;4.656;2022-08-19T02:56:25;60.97;;;32.03;;
68256;SDS011;55069;51.568;4.656;2022-08-19T02:58:52;45.80;;;25.55;;
68256;SDS011;55069;51.568;4.656;2022-08-19T03:01:23;62.30;;;31.27;;
68256;SDS011;55069;51.568;4.656;2022-08-19T03:03:50;60.47;;;32.65;;
68256;SDS011;55069;51.568;4.656;2022-08-19T03:06:16;61.35;;;31.60;;
68256;SDS011;55069;51.568;4.656;2022-08-19T03:08:43;72.82;;;37.63;;
68256;SDS011;55069;51.568;4.656;2022-08-19T03:11:17;71.57;;;37.13;;
68256;SDS011;55069;51.568;4.656;2022-08-19T03:13:48;79.80;;;37.40;;
68256;SDS011;55069;51.568;4.656;2022-08-19T03:16:15;82.88;;;39.30;;
68256;SDS011;55069;51.568;4.656;2022-08-19T03:18:41;84.07;;;40.22;;
68256;SDS011;55069;51.568;4.656;2022-08-19T03:21:07;72.05;;;35.45;;
68256;SDS011;55069;51.568;4.656;2022-08-19T03:23:33;75.43;;;37.63;;
68256;SDS011;55069;51.568;4.656;2022-08-19T03:25:59;62.42;;;32.80;;
68256;SDS011;55069;51.568;4.656;2022-08-19T03:28:29;66.90;;;35.63;;
68256;SDS011;55069;51.568;4.656;2022-08-19T03:30:56;68.33;;;35.60;;
68256;SDS011;55069;51.568;4.656;2022-08-19T03:33:32;65.78;;;34.78;;
68256;SDS011;55069;51.568;4.656;2022-08-19T03:36:00;73.15;;;36.92;;
68256;SDS011;55069;51.568;4.656;2022-08-19T03:38:26;63.85;;;34.03;;
68256;SDS011;55069;51.568;4.656;2022-08-19T03:40:51;74.93;;;35.97;;
68256;SDS011;55069;51.568;4.656;2022-08-19T03:43:17;58.80;;;32.13;;
68256;SDS011;55069;51.568;4.656;2022-08-19T03:45:43;73.68;;;33.90;;
68256;SDS011;55069;51.568;4.656;2022-08-19T03:48:09;55.80;;;30.23;;
68256;SDS011;55069;51.568;4.656;2022-08-19T03:50:38;49.17;;;29.13;;
68256;SDS011;55069;51.568;4.656;2022-08-19T03:53:04;47.92;;;28.25;;
68256;SDS011;55069;51.568;4.656;2022-08-19T03:55:29;55.80;;;30.67;;
68256;SDS011;55069;51.568;4.656;2022-08-19T03:57:55;61.27;;;31.13;;
68256;SDS011;55069;51.568;4.656;2022-08-19T04:00:21;55.22;;;29.88;;
68256;SDS011;55069;51.568;4.656;2022-08-19T04:02:47;45.17;;;25.02;;
68256;SDS011;55069;51.568;4.656;2022-08-19T04:05:12;46.63;;;25.93;;
68256;SDS011;55069;51.568;4.656;2022-08-19T04:07:39;43.25;;;25.73;;
68256;SDS011;55069;51.568;4.656;2022-08-19T04:10:05;52.97;;;29.77;;
68256;SDS011;55069;51.568;4.656;2022-08-19T04:12:31;47.50;;;26.58;;
68256;SDS011;55069;51.568;4.656;2022-08-19T04:14:57;51.55;;;26.73;;
68256;SDS011;55069;51.568;4.656;2022-08-19T04:17:23;55.63;;;29.85;;
68256;SDS011;55069;51.568;4.656;2022-08-19T04:19:49;45.70;;;25.00;;
68256;SDS011;55069;51.568;4.656;2022-08-19T04:22:14;61.27;;;29.70;;
68256;SDS011;55069;51.568;4.656;2022-08-19T04:24:40;50.95;;;27.90;;
68256;SDS011;55069;51.568;4.656;2022-08-19T04:27:06;56.20;;;28.40;;
68256;SDS011;55069;51.568;4.656;2022-08-19T04:29:32;64.75;;;29.45;;
68256;SDS011;55069;51.568;4.656;2022-08-19T04:31:58;47.00;;;26.10;;
68256;SDS011;55069;51.568;4.656;2022-08-19T04:34:25;47.38;;;26.25;;
68256;SDS011;55069;51.568;4.656;2022-08-19T04:36:54;49.73;;;25.97;;
68256;SDS011;55069;51.568;4.656;2022-08-19T04:39:25;42.60;;;23.55;;
68256;SDS011;55069;51.568;4.656;2022-08-19T04:42:12;50.50;;;27.80;;
68256;SDS011;55069;51.568;4.656;2022-08-19T04:44:57;41.22;;;23.63;;
68256;SDS011;55069;51.568;4.656;2022-08-19T04:47:24;57.42;;;26.23;;
68256;SDS011;55069;51.568;4.656;2022-08-19T04:49:50;52.47;;;25.57;;
68256;SDS011;55069;51.568;4.656;2022-08-19T04:52:15;42.92;;;24.23;;
68256;SDS011;55069;51.568;4.656;2022-08-19T04:54:41;46.30;;;25.87;;
68256;SDS011;55069;51.568;4.656;2022-08-19T04:57:07;50.65;;;26.60;;
68256;SDS011;55069;51.568;4.656;2022-08-19T04:59:35;44.97;;;21.98;;
68256;SDS011;55069;51.568;4.656;2022-08-19T05:02:02;36.73;;;19.50;;
68256;SDS011;55069;51.568;4.656;2022-08-19T05:04:28;35.53;;;19.85;;
68256;SDS011;55069;51.568;4.656;2022-08-19T05:06:56;36.35;;;20.17;;
68256;SDS011;55069;51.568;4.656;2022-08-19T05:09:23;45.97;;;20.73;;
68256;SDS011;55069;51.568;4.656;2022-08-19T05:11:49;37.83;;;20.20;;
68256;SDS011;55069;51.568;4.656;2022-08-19T05:14:18;47.03;;;23.85;;
68256;SDS011;55069;51.568;4.656;2022-08-19T05:16:44;35.75;;;20.30;;
68256;SDS011;55069;51.568;4.656;2022-08-19T05:19:10;37.63;;;20.37;;
68256;SDS011;55069;51.568;4.656;2022-08-19T05:21:54;41.35;;;21.58;;
68256;SDS011;55069;51.568;4.656;2022-08-19T05:24:52;38.78;;;21.23;;
68256;SDS011;55069;51.568;4.656;2022-08-19T05:27:18;33.70;;;19.33;;
68256;SDS011;55069;51.568;4.656;2022-08-19T05:29:44;47.73;;;24.37;;
68256;SDS011;55069;51.568;4.656;2022-08-19T05:32:09;39.20;;;20.23;;
68256;SDS011;55069;51.568;4.656;2022-08-19T05:34:35;30.33;;;18.75;;
68256;SDS011;55069;51.568;4.656;2022-08-19T05:37:03;37.95;;;20.17;;
68256;SDS011;55069;51.568;4.656;2022-08-19T05:39:30;35.03;;;19.90;;
68256;SDS011;55069;51.568;4.656;2022-08-19T05:41:59;35.72;;;20.50;;
68256;SDS011;55069;51.568;4.656;2022-08-19T05:44:27;35.10;;;18.73;;
68256;SDS011;55069;51.568;4.656;2022-08-19T05:47:01;39.75;;;20.17;;
68256;SDS011;55069;51.568;4.656;2022-08-19T05:49:29;43.28;;;24.13;;
68256;SDS011;55069;51.568;4.656;2022-08-19T05:51:57;35.05;;;19.83;;
68256;SDS011;55069;51.568;4.656;2022-08-19T05:54:23;31.10;;;18.85;;
68256;SDS011;55069;51.568;4.656;2022-08-19T05:56:50;39.00;;;21.90;;
68256;SDS011;55069;51.568;4.656;2022-08-19T05:59:17;35.15;;;19.00;;
68256;SDS011;55069;51.568;4.656;2022-08-19T06:01:47;42.33;;;23.17;;
68256;SDS011;55069;51.568;4.656;2022-08-19T06:04:16;46.88;;;22.52;;
68256;SDS011;55069;51.568;4.656;2022-08-19T06:06:44;37.47;;;20.27;;
68256;SDS011;55069;51.568;4.656;2022-08-19T06:09:11;30.73;;;18.37;;
68256;SDS011;55069;51.568;4.656;2022-08-19T06:11:38;32.80;;;16.85;;
68256;SDS011;55069;51.568;4.656;2022-08-19T06:14:13;31.80;;;19.02;;
68256;SDS011;55069;51.568;4.656;2022-08-19T06:16:41;44.03;;;22.77;;
68256;SDS011;55069;51.568;4.656;2022-08-19T06:19:08;31.40;;;18.48;;
68256;SDS011;55069;51.568;4.656;2022-08-19T06:21:38;39.63;;;20.05;;
68256;SDS011;55069;51.568;4.656;2022-08-19T06:24:06;43.17;;;22.92;;
68256;SDS011;55069;51.568;4.656;2022-08-19T06:26:35;39.03;;;20.48;;
68256;SDS011;55069;51.568;4.656;2022-08-19T06:29:03;36.47;;;20.60;;
68256;SDS011;55069;51.568;4.656;2022-08-19T06:31:33;34.08;;;19.92;;
68256;SDS011;55069;51.568;4.656;2022-08-19T06:34:01;30.13;;;18.42;;
68256;SDS011;55069;51.568;4.656;2022-08-19T06:36:29;35.63;;;18.35;;
68256;SDS011;55069;51.568;4.656;2022-08-19T06:39:06;31.42;;;18.50;;
68256;SDS011;55069;51.568;4.656;2022-08-19T06:41:39;38.47;;;20.17;;
68256;SDS011;55069;51.568;4.656;2022-08-19T06:44:15;37.28;;;21.90;;
68256;SDS011;55069;51.568;4.656;2022-08-19T06:46:42;35.28;;;18.05;;
68256;SDS011;55069;51.568;4.656;2022-08-19T06:49:09;34.28;;;18.27;;
68256;SDS011;55069;51.568;4.656;2022-08-19T06:51:36;36.00;;;20.20;;
68256;SDS011;55069;51.568;4.656;2022-08-19T06:54:02;37.57;;;20.67;;
68256;SDS011;55069;51.568;4.656;2022-08-19T06:56:29;35.15;;;18.38;;
68256;SDS011;55069;51.568;4.656;2022-08-19T06:59:01;37.65;;;20.50;;
68256;SDS011;55069;51.568;4.656;2022-08-19T07:01:39;42.33;;;21.70;;
68256;SDS011;55069;51.568;4.656;2022-08-19T07:04:06;40.38;;;20.73;;
68256;SDS011;55069;51.568;4.656;2022-08-19T07:06:33;37.15;;;20.13;;
68256;SDS011;55069;51.568;4.656;2022-08-19T07:09:00;43.85;;;21.73;;
68256;SDS011;55069;51.568;4.656;2022-08-19T07:11:26;41.60;;;20.60;;
68256;SDS011;55069;51.568;4.656;2022-08-19T07:13:52;34.38;;;20.13;;
68256;SDS011;55069;51.568;4.656;2022-08-19T07:16:18;36.08;;;18.15;;
68256;SDS011;55069;51.568;4.656;2022-08-19T07:18:45;35.83;;;20.02;;
68256;SDS011;55069;51.568;4.656;2022-08-19T07:21:16;34.75;;;18.88;;
68256;SDS011;55069;51.568;4.656;2022-08-19T07:23:44;37.50;;;19.90;;
68256;SDS011;55069;51.568;4.656;2022-08-19T07:26:16;37.67;;;19.60;;
68256;SDS011;55069;51.568;4.656;2022-08-19T07:28:49;35.40;;;18.48;;
68256;SDS011;55069;51.568;4.656;2022-08-19T07:31:17;36.95;;;17.27;;
68256;SDS011;55069;51.568;4.656;2022-08-19T07:33:45;31.02;;;17.58;;
68256;SDS011;55069;51.568;4.656;2022-08-19T07:36:13;34.13;;;17.90;;
68256;SDS011;55069;51.568;4.656;2022-08-19T07:38:41;35.10;;;17.30;;
68256;SDS011;55069;51.568;4.656;2022-08-19T07:41:10;29.55;;;16.70;;
68256;SDS011;55069;51.568;4.656;2022-08-19T07:43:37;23.52;;;16.08;;
68256;SDS011;55069;51.568;4.656;2022-08-19T07:46:03;24.83;;;15.77;;
68256;SDS011;55069;51.568;4.656;2022-08-19T07:48:29;31.55;;;16.33;;
68256;SDS011;55069;51.568;4.656;2022-08-19T07:50:55;29.75;;;15.82;;
68256;SDS011;55069;51.568;4.656;2022-08-19T07:53:24;29.70;;;15.43;;
68256;SDS011;55069;51.568;4.656;2022-08-19T07:55:49;23.77;;;14.47;;
68256;SDS011;55069;51.568;4.656;2022-08-19T07:58:18;24.35;;;13.60;;
68256;SDS011;55069;51.568;4.656;2022-08-19T08:00:46;27.58;;;14.48;;
68256;SDS011;55069;51.568;4.656;2022-08-19T08:03:14;25.20;;;13.43;;
68256;SDS011;55069;51.568;4.656;2022-08-19T08:05:42;25.73;;;14.45;;
68256;SDS011;55069;51.568;4.656;2022-08-19T08:08:26;29.77;;;13.73;;
68256;SDS011;55069;51.568;4.656;2022-08-19T08:11:11;23.90;;;13.32;;
68256;SDS011;55069;51.568;4.656;2022-08-19T08:13:38;22.35;;;12.88;;
68256;SDS011;55069;51.568;4.656;2022-08-19T08:16:06;22.73;;;12.90;;
68256;SDS011;55069;51.568;4.656;2022-08-19T08:18:32;21.83;;;13.02;;
68256;SDS011;55069;51.568;4.656;2022-08-19T08:20:59;22.27;;;12.90;;
68256;SDS011;55069;51.568;4.656;2022-08-19T08:23:25;24.20;;;13.90;;
68256;SDS011;55069;51.568;4.656;2022-08-19T08:25:52;21.77;;;12.48;;
68256;SDS011;55069;51.568;4.656;2022-08-19T08:28:20;24.07;;;12.17;;
68256;SDS011;55069;51.568;4.656;2022-08-19T08:30:46;19.80;;;11.18;;
68256;SDS011;55069;51.568;4.656;2022-08-19T08:33:16;22.95;;;12.20;;
68256;SDS011;55069;51.568;4.656;2022-08-19T08:35:44;21.33;;;12.68;;
68256;SDS011;55069;51.568;4.656;2022-08-19T08:38:10;19.45;;;11.73;;
68256;SDS011;55069;51.568;4.656;2022-08-19T08:40:48;18.77;;;12.60;;
68256;SDS011;55069;51.568;4.656;2022-08-19T08:43:32;25.77;;;12.85;;
68256;SDS011;55069;51.568;4.656;2022-08-19T08:46:07;20.05;;;12.88;;
68256;SDS011;55069;51.568;4.656;2022-08-19T08:51:03;23.40;;;12.75;;
68256;SDS011;55069;51.568;4.656;2022-08-19T08:53:32;23.63;;;14.10;;
68256;SDS011;55069;51.568;4.656;2022-08-19T08:56:00;28.23;;;14.10;;
68256;SDS011;55069;51.568;4.656;2022-08-19T08:58:31;23.25;;;13.55;;
68256;SDS011;55069;51.568;4.656;2022-08-19T09:01:09;24.40;;;13.43;;
68256;SDS011;55069;51.568;4.656;2022-08-19T09:03:37;25.55;;;13.98;;
68256;SDS011;55069;51.568;4.656;2022-08-19T09:06:18;22.33;;;13.23;;
68256;SDS011;55069;51.568;4.656;2022-08-19T09:09:04;22.85;;;12.75;;
68256;SDS011;55069;51.568;4.656;2022-08-19T09:17:03;23.27;;;15.45;;
68256;SDS011;55069;51.568;4.656;2022-08-19T09:19:33;22.10;;;14.80;;
68256;SDS011;55069;51.568;4.656;2022-08-19T09:22:00;26.65;;;14.80;;
68256;SDS011;55069;51.568;4.656;2022-08-19T09:24:26;26.40;;;16.17;;
68256;SDS011;55069;51.568;4.656;2022-08-19T09:26:52;25.10;;;15.23;;
68256;SDS011;55069;51.568;4.656;2022-08-19T09:29:17;22.52;;;15.52;;
68256;SDS011;55069;51.568;4.656;2022-08-19T09:31:43;24.50;;;14.87;;
68256;SDS011;55069;51.568;4.656;2022-08-19T09:34:09;24.63;;;15.75;;
68256;SDS011;55069;51.568;4.656;2022-08-19T09:36:34;22.73;;;14.60;;
68256;SDS011;55069;51.568;4.656;2022-08-19T09:39:04;26.02;;;14.73;;
68256;SDS011;55069;51.568;4.656;2022-08-19T09:41:31;21.27;;;13.23;;
68256;SDS011;55069;51.568;4.656;2022-08-19T09:43:57;20.53;;;12.97;;
68256;SDS011;55069;51.568;4.656;2022-08-19T09:46:24;23.98;;;14.25;;
68256;SDS011;55069;51.568;4.656;2022-08-19T09:48:52;21.02;;;13.70;;
68256;SDS011;55069;51.568;4.656;2022-08-19T09:51:20;19.75;;;14.02;;
68256;SDS011;55069;51.568;4.656;2022-08-19T09:53:48;18.55;;;13.45;;
68256;SDS011;55069;51.568;4.656;2022-08-19T09:56:15;18.73;;;12.43;;
68256;SDS011;55069;51.568;4.656;2022-08-19T09:58:42;22.85;;;13.38;;
68256;SDS011;55069;51.568;4.656;2022-08-19T10:01:08;18.20;;;12.20;;
68256;SDS011;55069;51.568;4.656;2022-08-19T10:03:35;21.65;;;13.25;;
68256;SDS011;55069;51.568;4.656;2022-08-19T10:06:03;23.55;;;12.25;;
68256;SDS011;55069;51.568;4.656;2022-08-19T10:08:31;23.27;;;12.90;;
68256;SDS011;55069;51.568;4.656;2022-08-19T10:10:59;19.65;;;12.98;;
68256;SDS011;55069;51.568;4.656;2022-08-19T10:13:27;19.07;;;11.17;;
68256;SDS011;55069;51.568;4.656;2022-08-19T10:15:57;20.38;;;12.90;;
68256;SDS011;55069;51.568;4.656;2022-08-19T10:18:31;16.80;;;12.10;;
68256;SDS011;55069;51.568;4.656;2022-08-19T10:21:03;18.92;;;11.52;;
68256;SDS011;55069;51.568;4.656;2022-08-19T10:23:34;15.32;;;10.23;;
68256;SDS011;55069;51.568;4.656;2022-08-19T10:26:02;12.43;;;9.07;;
68256;SDS011;55069;51.568;4.656;2022-08-19T10:28:31;11.98;;;8.57;;
68256;SDS011;55069;51.568;4.656;2022-08-19T10:31:02;13.00;;;8.13;;
68256;SDS011;55069;51.568;4.656;2022-08-19T10:33:30;15.48;;;9.60;;
68256;SDS011;55069;51.568;4.656;2022-08-19T10:35:59;13.07;;;10.10;;
68256;SDS011;55069;51.568;4.656;2022-08-19T10:38:27;15.88;;;9.48;;
68256;SDS011;55069;51.568;4.656;2022-08-19T10:40:54;14.77;;;9.52;;
68256;SDS011;55069;51.568;4.656;2022-08-19T10:43:20;17.40;;;11.13;;
68256;SDS011;55069;51.568;4.656;2022-08-19T10:45:51;19.40;;;11.77;;
68256;SDS011;55069;51.568;4.656;2022-08-19T10:48:18;13.90;;;10.25;;
68256;SDS011;55069;51.568;4.656;2022-08-19T10:50:44;13.63;;;10.63;;
68256;SDS011;55069;51.568;4.656;2022-08-19T10:53:28;15.40;;;10.90;;
68256;SDS011;55069;51.568;4.656;2022-08-19T10:55:54;19.20;;;12.35;;
68256;SDS011;55069;51.568;4.656;2022-08-19T10:58:40;22.27;;;15.70;;
68256;SDS011;55069;51.568;4.656;2022-08-19T11:01:08;29.50;;;17.17;;
68256;SDS011;55069;51.568;4.656;2022-08-19T11:03:33;36.90;;;19.23;;
68256;SDS011;55069;51.568;4.656;2022-08-19T11:05:59;29.27;;;20.65;;
68256;SDS011;55069;51.568;4.656;2022-08-19T11:08:29;31.93;;;21.83;;
68256;SDS011;55069;51.568;4.656;2022-08-19T11:10:57;34.42;;;23.98;;
68256;SDS011;55069;51.568;4.656;2022-08-19T11:13:26;35.85;;;23.42;;
68256;SDS011;55069;51.568;4.656;2022-08-19T11:15:57;35.63;;;23.13;;
68256;SDS011;55069;51.568;4.656;2022-08-19T11:18:24;26.67;;;19.98;;
68256;SDS011;55069;51.568;4.656;2022-08-19T11:20:50;25.33;;;17.77;;
68256;SDS011;55069;51.568;4.656;2022-08-19T11:23:15;24.55;;;16.45;;
68256;SDS011;55069;51.568;4.656;2022-08-19T11:25:41;19.95;;;15.70;;
68256;SDS011;55069;51.568;4.656;2022-08-19T11:28:07;20.07;;;14.60;;
68256;SDS011;55069;51.568;4.656;2022-08-19T11:30:32;19.98;;;15.10;;
68256;SDS011;55069;51.568;4.656;2022-08-19T11:32:59;22.63;;;15.23;;
68256;SDS011;55069;51.568;4.656;2022-08-19T11:35:26;21.43;;;14.50;;
68256;SDS011;55069;51.568;4.656;2022-08-19T11:37:51;21.65;;;14.63;;
68256;SDS011;55069;51.568;4.656;2022-08-19T11:40:17;20.55;;;14.80;;
68256;SDS011;55069;51.568;4.656;2022-08-19T11:42:43;21.65;;;15.40;;
68256;SDS011;55069;51.568;4.656;2022-08-19T11:45:25;20.75;;;15.07;;
68256;SDS011;55069;51.568;4.656;2022-08-19T11:47:53;25.02;;;15.82;;
68256;SDS011;55069;51.568;4.656;2022-08-19T11:50:19;22.40;;;14.73;;
68256;SDS011;55069;51.568;4.656;2022-08-19T11:52:45;26.25;;;16.15;;
68256;SDS011;55069;51.568;4.656;2022-08-19T11:55:12;21.52;;;13.60;;
68256;SDS011;55069;51.568;4.656;2022-08-19T11:57:39;19.00;;;13.68;;
68256;SDS011;55069;51.568;4.656;2022-08-19T12:00:06;17.80;;;13.77;;
68256;SDS011;55069;51.568;4.656;2022-08-19T12:02:33;17.70;;;12.88;;
68256;SDS011;55069;51.568;4.656;2022-08-19T12:04:58;18.65;;;13.77;;
68256;SDS011;55069;51.568;4.656;2022-08-19T12:07:27;19.25;;;13.73;;
68256;SDS011;55069;51.568;4.656;2022-08-19T12:09:54;20.95;;;15.52;;
68256;SDS011;55069;51.568;4.656;2022-08-19T12:12:19;19.43;;;14.63;;
68256;SDS011;55069;51.568;4.656;2022-08-19T12:14:46;20.40;;;13.75;;
68256;SDS011;55069;51.568;4.656;2022-08-19T12:17:12;20.40;;;13.87;;
68256;SDS011;55069;51.568;4.656;2022-08-19T12:19:38;14.00;;;9.80;;
68256;SDS011;55069;51.568;4.656;2022-08-19T12:22:04;15.40;;;11.60;;
68256;SDS011;55069;51.568;4.656;2022-08-19T12:24:31;16.25;;;11.80;;
68256;SDS011;55069;51.568;4.656;2022-08-19T12:26:58;15.80;;;12.73;;
68256;SDS011;55069;51.568;4.656;2022-08-19T12:29:27;19.13;;;13.20;;
68256;SDS011;55069;51.568;4.656;2022-08-19T12:31:53;15.45;;;12.68;;
68256;SDS011;55069;51.568;4.656;2022-08-19T12:34:19;17.25;;;13.18;;
68256;SDS011;55069;51.568;4.656;2022-08-19T12:36:45;22.73;;;15.65;;
68256;SDS011;55069;51.568;4.656;2022-08-19T12:39:14;18.75;;;15.05;;
68256;SDS011;55069;51.568;4.656;2022-08-19T12:41:39;20.80;;;15.90;;
68256;SDS011;55069;51.568;4.656;2022-08-19T12:44:05;23.30;;;16.23;;
68256;SDS011;55069;51.568;4.656;2022-08-19T12:46:31;22.03;;;16.77;;
68256;SDS011;55069;51.568;4.656;2022-08-19T12:48:57;19.10;;;14.55;;
68256;SDS011;55069;51.568;4.656;2022-08-19T12:51:22;19.20;;;13.67;;
68256;SDS011;55069;51.568;4.656;2022-08-19T12:53:48;19.47;;;13.67;;
68256;SDS011;55069;51.568;4.656;2022-08-19T12:56:14;20.58;;;13.55;;
68256;SDS011;55069;51.568;4.656;2022-08-19T12:58:42;21.58;;;15.30;;
68256;SDS011;55069;51.568;4.656;2022-08-19T13:01:11;26.10;;;16.38;;
68256;SDS011;55069;51.568;4.656;2022-08-19T13:03:41;21.75;;;15.48;;
68256;SDS011;55069;51.568;4.656;2022-08-19T13:06:08;21.63;;;15.40;;
68256;SDS011;55069;51.568;4.656;2022-08-19T13:08:34;20.98;;;13.93;;
68256;SDS011;55069;51.568;4.656;2022-08-19T13:11:14;21.00;;;13.90;;
68256;SDS011;55069;51.568;4.656;2022-08-19T13:13:43;22.20;;;14.82;;
68256;SDS011;55069;51.568;4.656;2022-08-19T13:16:11;18.95;;;12.25;;
68256;SDS011;55069;51.568;4.656;2022-08-19T13:18:38;21.43;;;13.90;;
68256;SDS011;55069;51.568;4.656;2022-08-19T13:21:05;20.17;;;13.35;;
68256;SDS011;55069;51.568;4.656;2022-08-19T13:23:33;18.73;;;12.60;;
68256;SDS011;55069;51.568;4.656;2022-08-19T13:26:00;20.75;;;13.35;;
68256;SDS011;55069;51.568;4.656;2022-08-19T13:28:28;19.08;;;12.35;;
68256;SDS011;55069;51.568;4.656;2022-08-19T13:31:15;16.67;;;12.70;;
68256;SDS011;55069;51.568;4.656;2022-08-19T13:34:01;18.85;;;13.43;;
68256;SDS011;55069;51.568;4.656;2022-08-19T13:36:26;18.30;;;14.07;;
68256;SDS011;55069;51.568;4.656;2022-08-19T13:38:52;17.77;;;12.93;;
68256;SDS011;55069;51.568;4.656;2022-08-19T13:41:18;18.57;;;12.27;;
68256;SDS011;55069;51.568;4.656;2022-08-19T13:43:44;18.55;;;13.50;;
68256;SDS011;55069;51.568;4.656;2022-08-19T13:46:10;22.83;;;12.52;;
68256;SDS011;55069;51.568;4.656;2022-08-19T13:48:39;17.25;;;12.57;;
68256;SDS011;55069;51.568;4.656;2022-08-19T13:51:06;23.60;;;14.07;;
68256;SDS011;55069;51.568;4.656;2022-08-19T13:53:38;17.25;;;13.20;;
68256;SDS011;55069;51.568;4.656;2022-08-19T13:56:05;21.02;;;13.07;;
68256;SDS011;55069;51.568;4.656;2022-08-19T13:58:32;18.65;;;10.10;;
68256;SDS011;55069;51.568;4.656;2022-08-19T14:00:58;14.25;;;10.13;;
68256;SDS011;55069;51.568;4.656;2022-08-19T14:03:25;14.67;;;9.53;;
68256;SDS011;55069;51.568;4.656;2022-08-19T14:05:51;16.10;;;10.60;;
68256;SDS011;55069;51.568;4.656;2022-08-19T14:08:16;16.42;;;9.93;;
68256;SDS011;55069;51.568;4.656;2022-08-19T14:10:43;18.95;;;9.68;;
68256;SDS011;55069;51.568;4.656;2022-08-19T14:13:14;16.67;;;10.20;;
68256;SDS011;55069;51.568;4.656;2022-08-19T14:15:43;19.23;;;10.85;;
68256;SDS011;55069;51.568;4.656;2022-08-19T14:18:09;11.73;;;8.95;;
68256;SDS011;55069;51.568;4.656;2022-08-19T14:20:35;18.25;;;10.10;;
68256;SDS011;55069;51.568;4.656;2022-08-19T14:23:02;17.13;;;10.55;;
68256;SDS011;55069;51.568;4.656;2022-08-19T14:25:30;20.40;;;11.80;;
68256;SDS011;55069;51.568;4.656;2022-08-19T14:27:57;17.25;;;10.75;;
68256;SDS011;55069;51.568;4.656;2022-08-19T14:30:24;14.50;;;10.95;;
68256;SDS011;55069;51.568;4.656;2022-08-19T14:32:52;17.48;;;12.27;;
68256;SDS011;55069;51.568;4.656;2022-08-19T14:35:19;19.52;;;12.27;;
68256;SDS011;55069;51.568;4.656;2022-08-19T14:37:47;18.45;;;12.55;;